createdAt,value
2018-11-20T00:05:12.934Z,2.14
2018-11-20T00:10:57.896Z,2.10
2018-11-20T00:16:46.619Z,2.06
2018-11-20T00:22:15.579Z,2.07
2018-11-20T00:27:52.688Z,1.98
2018-11-20T00:33:31.279Z,1.93
2018-11-20T00:39:13.132Z,1.83
2018-11-20T00:44:41.426Z,1.77
2018-11-20T00:50:29.383Z,1.65
2018-11-20T00:56:58.881Z,1.64
2018-11-20T01:02:37.687Z,1.61
2018-11-20T01:08:22.705Z,1.46
2018-11-20T01:14:00.026Z,1.45
2018-11-20T01:19:38.665Z,1.42
2018-11-20T01:25:17.992Z,1.40
2018-11-20T01:31:08.430Z,1.41
2018-11-20T01:36:43.309Z,1.38
2018-11-20T01:42:28.292Z,1.38
2018-11-20T01:48:18.694Z,1.42
2018-11-20T01:53:56.444Z,1.39
2018-11-20T01:59:29.386Z,1.43
2018-11-20T02:05:07.163Z,1.44
2018-11-20T02:10:48.503Z,1.48
2018-11-20T02:16:36.673Z,1.45
2018-11-20T02:22:14.536Z,1.35
2018-11-20T02:27:56.408Z,1.40
2018-11-20T02:33:34.459Z,1.39
2018-11-20T02:39:14.001Z,1.40
2018-11-20T02:44:52.390Z,1.42
2018-11-20T02:50:30.864Z,1.48
2018-11-20T02:56:19.240Z,1.51
2018-11-20T03:02:06.889Z,1.51
2018-11-20T03:08:04.227Z,1.57
2018-11-20T03:13:46.330Z,1.62
2018-11-20T03:19:25.119Z,1.62
2018-11-20T03:25:03.286Z,1.61
2018-11-20T03:31:15.817Z,1.67
2018-11-20T03:37:03.611Z,1.62
2018-11-20T03:42:51.245Z,1.68
2018-11-20T03:48:30.206Z,1.76
2018-11-20T03:54:06.971Z,1.78
2018-11-20T03:59:48.793Z,1.80
2018-11-20T04:05:20.821Z,1.87
2018-11-20T04:10:59.451Z,1.84
2018-11-20T04:16:50.641Z,1.86
2018-11-20T04:22:41.768Z,1.95
2018-11-20T04:28:18.887Z,1.93
2018-11-20T04:34:17.607Z,1.99
2018-11-20T04:39:55.323Z,2.05
2018-11-20T04:45:33.349Z,2.02
2018-11-20T04:51:17.992Z,2.04
2018-11-20T04:57:06.137Z,2.08
2018-11-20T05:02:47.829Z,2.10
2018-11-20T05:08:42.017Z,2.08
2018-11-20T05:14:30.011Z,2.08
2018-11-20T05:20:07.747Z,2.12
2018-11-20T05:25:44.920Z,2.12
2018-11-20T05:31:22.838Z,2.12
2018-11-20T05:36:51.879Z,2.15
2018-11-20T05:42:29.501Z,2.15
2018-11-20T05:48:14.226Z,2.10
2018-11-20T05:53:49.586Z,2.15
2018-11-20T05:59:27.443Z,2.26
2018-11-20T06:05:24.420Z,2.26
2018-11-20T06:11:12.434Z,2.18
2018-11-20T06:16:55.264Z,2.17
2018-11-20T06:22:46.175Z,2.17
2018-11-20T06:28:28.157Z,2.17
2018-11-20T06:34:05.976Z,2.19
2018-11-20T06:39:50.519Z,2.20
2018-11-20T06:45:22.968Z,2.31
2018-11-20T06:51:00.400Z,2.25
2018-11-20T06:56:37.956Z,2.23
2018-11-20T07:02:15.337Z,2.25
2018-11-20T07:07:53.163Z,2.20
2018-11-20T07:13:54.421Z,2.18
2018-11-20T07:19:32.417Z,2.21
2018-11-20T07:25:11.064Z,2.24
2018-11-20T07:30:53.706Z,2.26
2018-11-20T07:36:39.370Z,2.25
2018-11-20T07:42:33.359Z,2.24
2018-11-20T07:48:10.695Z,2.28
2018-11-20T07:53:55.531Z,2.30
2018-11-20T07:59:33.200Z,2.28
2018-11-20T08:05:06.899Z,2.26
2018-11-20T08:10:32.975Z,2.29
2018-11-20T08:16:14.456Z,2.34
2018-11-20T08:21:51.843Z,2.35
2018-11-20T08:27:45.367Z,2.41
2018-11-20T08:33:22.720Z,2.35
2018-11-20T08:39:07.178Z,2.38
2018-11-20T08:44:44.436Z,2.39
2018-11-20T08:50:21.256Z,2.45
2018-11-20T08:55:53.761Z,2.38
2018-11-20T09:01:27.690Z,2.40
2018-11-20T09:07:12.918Z,2.39
2018-11-20T09:12:50.117Z,2.52
2018-11-20T09:18:27.547Z,2.57
2018-11-20T09:24:12.558Z,2.60
2018-11-20T09:29:41.596Z,2.63
2018-11-20T09:35:19.234Z,2.67
2018-11-20T09:41:07.029Z,2.75
2018-11-20T09:46:44.143Z,2.88
2018-11-20T09:52:25.617Z,2.93
2018-11-20T09:57:57.029Z,2.96
2018-11-20T10:03:48.215Z,3.00
2018-11-20T10:09:29.865Z,3.05
2018-11-20T10:15:05.472Z,3.06
2018-11-20T10:20:43.145Z,3.15
2018-11-20T10:26:24.907Z,3.16
2018-11-20T10:32:10.552Z,3.15
2018-11-20T10:37:48.046Z,3.21
2018-11-20T10:43:32.840Z,3.19
2018-11-20T10:49:10.568Z,3.24
2018-11-20T10:54:52.831Z,3.30
2018-11-20T11:00:30.538Z,3.29
2018-11-20T11:06:00.224Z,3.37
2018-11-20T11:11:38.191Z,3.38
2018-11-20T11:17:29.444Z,3.46
2018-11-20T11:23:11.333Z,3.54
2018-11-20T11:28:51.416Z,3.55
2018-11-20T11:34:34.932Z,3.64
2018-11-20T11:40:02.892Z,3.65
2018-11-20T11:45:47.697Z,3.68
2018-11-20T11:51:14.605Z,3.68
2018-11-20T11:56:52.649Z,3.67
2018-11-20T12:08:18.047Z,3.64
2018-11-20T12:13:55.502Z,3.71
2018-11-20T12:19:32.865Z,3.73
2018-11-20T12:25:08.067Z,3.75
2018-11-20T12:30:47.109Z,3.69
2018-11-20T12:36:30.521Z,3.71
2018-11-20T12:42:02.551Z,3.57
2018-11-20T12:47:37.860Z,3.58
2018-11-20T12:53:21.271Z,3.67
2018-11-20T12:58:53.994Z,3.82
2018-11-20T13:04:29.783Z,3.78
2018-11-20T13:10:07.284Z,3.75
2018-11-20T13:15:47.113Z,3.58
2018-11-20T13:21:27.542Z,3.51
2018-11-20T13:27:04.880Z,3.50
2018-11-20T13:32:40.648Z,3.55
2018-11-20T13:38:37.409Z,3.64
2018-11-20T13:44:18.935Z,3.69
2018-11-20T13:49:57.458Z,3.76
2018-11-20T13:55:35.726Z,3.74
2018-11-20T14:01:23.027Z,3.60
2018-11-20T14:07:05.050Z,3.62
2018-11-20T14:13:01.606Z,3.43
2018-11-20T14:18:35.691Z,3.41
2018-11-20T14:24:17.140Z,3.51
2018-11-20T14:29:56.171Z,3.53
2018-11-20T14:35:35.398Z,3.58
2018-11-20T14:41:19.773Z,3.64
2018-11-20T14:47:09.646Z,3.74
2018-11-20T14:53:00.630Z,3.63
2018-11-20T14:58:42.552Z,3.48
2018-11-20T15:04:19.654Z,3.49
2018-11-20T15:10:09.591Z,3.44
2018-11-20T15:15:47.466Z,3.29
2018-11-20T15:21:26.241Z,3.38
2018-11-20T15:27:04.227Z,3.43
2018-11-20T15:32:41.719Z,3.42
2018-11-20T15:38:22.840Z,3.38
2018-11-20T15:44:07.241Z,3.52
2018-11-20T15:49:58.792Z,3.50
2018-11-20T15:55:36.543Z,3.38
2018-11-20T16:01:22.921Z,3.22
2018-11-20T16:07:01.540Z,3.13
2018-11-20T16:12:32.255Z,3.05
2018-11-20T16:18:07.160Z,3.03
2018-11-20T16:23:45.414Z,3.08
2018-11-20T16:29:32.791Z,3.02
2018-11-20T16:35:10.272Z,2.81
2018-11-20T16:40:55.200Z,2.75
2018-11-20T16:46:34.324Z,2.52
2018-11-20T16:52:11.632Z,2.38
2018-11-20T16:57:49.064Z,2.43
2018-11-20T17:03:34.169Z,2.45
2018-11-20T17:09:12.613Z,2.51
2018-11-20T17:15:09.769Z,2.39
2018-11-20T17:20:51.844Z,2.31
2018-11-20T17:26:31.952Z,2.15
2018-11-20T17:32:10.202Z,2.10
2018-11-20T17:37:49.422Z,2.08
2018-11-20T17:43:39.923Z,1.97
2018-11-20T17:49:25.172Z,2.03
2018-11-20T17:55:16.324Z,2.09
2018-11-20T18:00:55.977Z,2.04
2018-11-20T18:06:40.886Z,1.99
2018-11-20T18:12:19.816Z,2.01
2018-11-20T18:18:01.913Z,1.99
2018-11-20T18:23:49.812Z,1.97
2018-11-20T18:29:31.372Z,2.12
2018-11-20T18:35:09.169Z,2.11
2018-11-20T18:40:56.781Z,2.27
2018-11-20T18:46:43.774Z,2.26
2018-11-20T18:52:25.033Z,2.20
2018-11-20T18:58:02.282Z,2.16
2018-11-20T19:03:44.533Z,2.05
2018-11-20T19:09:23.566Z,2.15
2018-11-20T19:15:08.051Z,2.14
2018-11-20T19:20:49.458Z,2.22
2018-11-20T19:26:36.950Z,2.30
2018-11-20T19:32:14.134Z,2.21
2018-11-20T19:37:51.586Z,2.18
2018-11-20T19:43:36.885Z,2.22
2018-11-20T19:49:24.753Z,2.16
2018-11-20T19:55:04.176Z,2.05
2018-11-20T20:07:16.850Z,2.03
2018-11-20T20:12:53.242Z,1.82
2018-11-20T20:18:34.869Z,1.55
2018-11-20T20:24:04.051Z,1.34
2018-11-20T20:29:37.346Z,1.06
2018-11-20T20:35:15.198Z,0.92
2018-11-20T20:41:04.885Z,0.97
2018-11-20T20:46:45.241Z,0.90
2018-11-20T20:52:20.845Z,0.71
2018-11-20T20:58:09.011Z,0.57
2018-11-20T21:03:53.190Z,0.70
2018-11-20T21:09:40.277Z,0.75
2018-11-20T21:15:20.985Z,0.86
2018-11-20T21:20:58.363Z,0.79
2018-11-20T21:26:37.277Z,0.73
2018-11-20T21:32:14.192Z,0.61
2018-11-20T21:37:58.338Z,0.75
2018-11-20T21:43:48.678Z,0.70
2018-11-20T21:49:53.027Z,0.92
2018-11-20T21:55:50.285Z,0.94
2018-11-20T22:01:32.662Z,0.76
2018-11-20T22:07:15.519Z,0.79
2018-11-20T22:12:52.769Z,0.69
2018-11-20T22:18:43.234Z,0.75
2018-11-20T22:24:21.555Z,0.81
2018-11-20T22:29:59.495Z,0.74
2018-11-20T22:35:36.705Z,0.61
2018-11-20T22:41:28.122Z,0.68
2018-11-20T22:47:14.666Z,0.69
2018-11-20T22:52:50.869Z,0.69
2018-11-20T22:58:31.917Z,0.84
2018-11-20T23:04:08.712Z,0.86
2018-11-20T23:09:29.161Z,1.03
2018-11-20T23:14:49.251Z,1.22
2018-11-20T23:20:14.832Z,1.07
2018-11-20T23:25:34.458Z,1.14
2018-11-20T23:30:53.540Z,1.16
2018-11-20T23:36:29.000Z,1.43
2018-11-20T23:41:49.054Z,1.08
2018-11-20T23:47:08.654Z,0.87
2018-11-20T23:52:29.865Z,0.76
2018-11-20T23:57:50.227Z,0.67
